Time;durP1;ratioP1;P1;durP2;ratioP2;P2;SDS_P1;SDS_P2;PMS_P1;PMS_P2;Temp;Humidity;BMP_temperature;BMP_pressure;BME280_temperature;BME280_humidity;BME280_pressure;Samples;Min_cycle;Max_cycle;Signal;HPM_P1;HPM_P2
2022/11/09 00:00:51;;;;;;;4.03;1.10;;;11.50;99.90;;;;;;6156878;23;20072;-78
2022/11/09 00:03:17;;;;;;;4.32;1.10;;;11.50;99.90;;;;;;6130364;23;20018;-78
2022/11/09 00:05:43;;;;;;;3.10;1.10;;;11.50;99.90;;;;;;6156737;23;20067;-78
2022/11/09 00:08:10;;;;;;;5.57;1.02;;;11.50;99.90;;;;;;6156770;23;20072;-78
2022/11/09 00:10:37;;;;;;;6.47;1.95;;;11.50;99.90;;;;;;6130304;23;20530;-78
2022/11/09 00:13:03;;;;;;;5.13;1.42;;;11.50;99.90;;;;;;6156340;23;20032;-78
2022/11/09 00:15:28;;;;;;;7.00;1.52;;;11.60;99.90;;;;;;6130142;23;20079;-78
2022/11/09 00:17:54;;;;;;;7.47;1.00;;;11.60;99.90;;;;;;6156322;23;20021;-78
2022/11/09 00:20:20;;;;;;;3.15;0.93;;;11.60;99.90;;;;;;6130233;23;20024;-78
2022/11/09 00:22:49;;;;;;;5.95;1.70;;;11.50;99.90;;;;;;6154904;23;20018;-78
2022/11/09 00:25:15;;;;;;;4.65;1.00;;;11.60;99.90;;;;;;6130280;23;20342;-79
2022/11/09 00:27:41;;;;;;;4.95;1.00;;;11.60;99.90;;;;;;6156769;23;20017;-79
2022/11/09 00:30:09;;;;;;;5.25;0.90;;;11.60;99.90;;;;;;6156323;23;20032;-78
2022/11/09 00:32:35;;;;;;;6.90;1.15;;;11.50;99.90;;;;;;6130156;23;20029;-78
2022/11/09 00:35:00;;;;;;;5.38;0.90;;;11.50;99.90;;;;;;6130188;23;20014;-79
2022/11/09 00:37:29;;;;;;;6.88;1.40;;;11.50;99.90;;;;;;6130140;23;20410;-77
2022/11/09 00:39:55;;;;;;;3.25;0.90;;;11.50;99.90;;;;;;6130196;23;20021;-78
2022/11/09 00:42:20;;;;;;;4.95;0.95;;;11.50;99.90;;;;;;6156468;23;20014;-78
2022/11/09 00:44:46;;;;;;;3.47;0.90;;;11.60;99.90;;;;;;6130146;23;20021;-78
2022/11/09 00:47:12;;;;;;;5.82;0.98;;;11.50;99.90;;;;;;6156484;23;20017;-80
2022/11/09 00:49:37;;;;;;;5.75;1.23;;;11.60;99.90;;;;;;6156145;23;20018;-78
2022/11/09 00:52:03;;;;;;;6.45;1.10;;;11.50;99.90;;;;;;6156419;23;20017;-77
2022/11/09 00:54:28;;;;;;;2.65;0.80;;;11.50;99.90;;;;;;6156444;23;20021;-78
2022/11/09 00:56:54;;;;;;;5.70;1.00;;;11.60;99.90;;;;;;6130141;23;20021;-78
2022/11/09 00:59:20;;;;;;;2.97;0.90;;;11.50;99.90;;;;;;6156487;23;20014;-78
2022/11/09 01:01:46;;;;;;;5.45;1.10;;;11.40;99.90;;;;;;6156431;23;20092;-78
2022/11/09 01:04:11;;;;;;;6.60;1.08;;;11.40;99.90;;;;;;6130027;23;20014;-77
2022/11/09 01:06:37;;;;;;;4.15;0.73;;;11.40;99.90;;;;;;6156437;23;20464;-77
2022/11/09 01:09:02;;;;;;;4.43;1.00;;;11.40;99.90;;;;;;6130045;23;20017;-78
2022/11/09 01:11:28;;;;;;;2.28;0.80;;;11.40;99.90;;;;;;6129948;23;20026;-77
2022/11/09 01:13:54;;;;;;;7.43;1.20;;;11.30;99.90;;;;;;6129880;23;20039;-77
2022/11/09 01:16:22;;;;;;;5.38;1.10;;;11.30;99.90;;;;;;6156029;23;20022;-77
2022/11/09 01:18:52;;;;;;;5.45;1.02;;;11.30;99.90;;;;;;6130088;23;20022;-77
2022/11/09 01:21:17;;;;;;;5.57;1.20;;;11.30;99.90;;;;;;6130333;23;20028;-77
2022/11/09 01:23:43;;;;;;;6.82;1.48;;;11.30;99.90;;;;;;6130037;23;20025;-77
2022/11/09 01:26:11;;;;;;;5.93;1.70;;;11.30;99.90;;;;;;6156319;23;20422;-77
2022/11/09 01:28:37;;;;;;;5.60;2.88;;;11.30;99.90;;;;;;6156378;23;20028;-78
2022/11/09 01:31:09;;;;;;;7.43;3.15;;;11.30;99.90;;;;;;6156253;23;20018;-78
2022/11/09 01:33:35;;;;;;;6.90;2.40;;;11.30;99.90;;;;;;6157602;23;20025;-78
2022/11/09 01:36:03;;;;;;;9.95;3.40;;;11.40;99.90;;;;;;6157991;23;20060;-78
2022/11/09 01:38:28;;;;;;;11.07;3.33;;;11.30;99.90;;;;;;6157825;23;20481;-78
2022/11/09 01:40:54;;;;;;;8.63;2.47;;;11.40;99.90;;;;;;6131744;23;20092;-77
2022/11/09 01:43:21;;;;;;;8.70;3.30;;;11.40;99.90;;;;;;6131801;23;20100;-77
2022/11/09 01:46:13;;;;;;;7.97;3.50;;;11.40;99.90;;;;;;6158130;23;20087;-78
2022/11/09 01:48:52;;;;;;;8.10;3.38;;;11.40;99.90;;;;;;6158104;23;20017;-77
2022/11/09 01:51:42;;;;;;;10.98;4.07;;;11.50;99.90;;;;;;6157959;23;20092;-78
2022/11/09 01:54:18;;;;;;;8.90;3.10;;;11.60;99.90;;;;;;6131640;23;20017;-78
2022/11/09 01:56:46;;;;;;;9.93;2.70;;;11.60;99.90;;;;;;6158057;23;20013;-77
2022/11/09 01:59:15;;;;;;;7.97;3.08;;;11.70;99.90;;;;;;6158005;23;20068;-78
2022/11/09 02:01:42;;;;;;;7.20;3.05;;;11.70;99.90;;;;;;6157579;23;20021;-77
2022/11/09 02:04:23;;;;;;;5.38;2.47;;;11.70;99.90;;;;;;6157907;23;20064;-77
2022/11/09 02:06:49;;;;;;;10.73;2.92;;;11.70;99.90;;;;;;6131558;23;20049;-77
2022/11/09 02:09:30;;;;;;;11.93;2.78;;;11.70;99.90;;;;;;6157483;23;20458;-77
2022/11/09 02:11:56;;;;;;;8.25;2.53;;;11.60;99.90;;;;;;6157550;23;20024;-78
2022/11/09 02:14:24;;;;;;;6.60;2.28;;;11.70;99.90;;;;;;6157852;23;20017;-78
2022/11/09 02:16:49;;;;;;;11.57;3.20;;;11.70;99.90;;;;;;6157890;23;20047;-77
2022/11/09 02:19:15;;;;;;;5.55;2.85;;;11.70;99.90;;;;;;6131387;23;20018;-78
2022/11/09 02:21:41;;;;;;;10.75;3.25;;;11.70;99.90;;;;;;6131446;23;20022;-78
2022/11/09 02:24:07;;;;;;;7.18;2.92;;;11.60;99.90;;;;;;6131445;23;20406;-78
2022/11/09 02:26:47;;;;;;;12.07;3.17;;;11.70;99.90;;;;;;6131311;23;20021;-78
2022/11/09 02:29:19;;;;;;;7.25;3.33;;;11.60;99.90;;;;;;6157813;23;20064;-77
2022/11/09 02:31:51;;;;;;;8.80;2.75;;;11.60;99.90;;;;;;6131209;23;20017;-78
2022/11/09 02:34:19;;;;;;;6.80;2.90;;;11.70;99.90;;;;;;6131247;23;20021;-77
2022/11/09 02:36:44;;;;;;;8.18;3.38;;;11.70;99.90;;;;;;6131115;23;20088;-77
2022/11/09 02:39:13;;;;;;;10.73;3.83;;;11.60;99.90;;;;;;6157625;23;20045;-78
2022/11/09 02:41:49;;;;;;;10.60;3.20;;;11.60;99.90;;;;;;6157623;23;20017;-77
2022/11/09 02:44:16;;;;;;;10.43;3.30;;;11.70;99.90;;;;;;6157105;23;20021;-77
2022/11/09 02:46:41;;;;;;;8.45;3.17;;;11.70;99.90;;;;;;6131135;23;20323;-77
2022/11/09 02:49:07;;;;;;;9.65;3.88;;;11.70;99.90;;;;;;6157543;23;20049;-78
2022/11/09 02:51:33;;;;;;;11.73;3.35;;;11.70;99.90;;;;;;6131039;23;20021;-78
2022/11/09 02:53:58;;;;;;;12.02;3.75;;;11.70;99.90;;;;;;6157452;23;20018;-77
2022/11/09 02:56:24;;;;;;;10.68;3.97;;;11.70;99.90;;;;;;6157484;23;20312;-77
2022/11/09 02:58:50;;;;;;;12.95;4.00;;;11.70;99.90;;;;;;6157473;23;20092;-77
2022/11/09 03:01:15;;;;;;;14.63;4.43;;;11.70;99.90;;;;;;6157086;23;20045;-77
2022/11/09 03:03:41;;;;;;;17.85;4.88;;;11.70;99.90;;;;;;6130966;23;20442;-77
2022/11/09 03:06:07;;;;;;;14.80;3.72;;;11.70;99.90;;;;;;6131006;23;20345;-77
2022/11/09 03:08:32;;;;;;;11.95;3.55;;;11.70;99.90;;;;;;6157364;23;20470;-77
2022/11/09 03:10:59;;;;;;;11.77;3.53;;;11.60;99.90;;;;;;6156995;23;20312;-77
2022/11/09 03:13:24;;;;;;;12.02;3.28;;;11.70;99.90;;;;;;6130665;23;20385;-78
2022/11/09 03:15:50;;;;;;;13.35;3.67;;;11.60;99.90;;;;;;6157244;23;20445;-78
2022/11/09 03:18:16;;;;;;;10.82;3.22;;;11.60;99.90;;;;;;6156778;23;20018;-77
2022/11/09 03:20:41;;;;;;;8.55;3.60;;;11.60;99.90;;;;;;6156937;23;20442;-78
2022/11/09 03:23:07;;;;;;;13.68;3.70;;;11.70;99.90;;;;;;6157191;23;20014;-78
2022/11/09 03:25:33;;;;;;;8.13;3.70;;;11.60;99.90;;;;;;6130705;23;20028;-77
2022/11/09 03:28:00;;;;;;;13.35;3.70;;;11.60;99.90;;;;;;6130853;23;20021;-78
2022/11/09 03:30:26;;;;;;;14.18;3.08;;;11.60;99.90;;;;;;6130760;23;20025;-77
2022/11/09 03:33:00;;;;;;;10.73;3.22;;;11.60;99.90;;;;;;6130564;23;20017;-77
2022/11/09 03:35:26;;;;;;;13.52;3.30;;;11.60;99.90;;;;;;6130581;23;20347;-77
2022/11/09 03:37:52;;;;;;;9.38;2.97;;;11.60;99.90;;;;;;6130545;23;20524;-78
2022/11/09 03:40:18;;;;;;;11.55;2.60;;;11.60;99.90;;;;;;6156720;23;20025;-77
2022/11/09 03:42:45;;;;;;;12.77;3.75;;;11.60;99.90;;;;;;6156660;23;20080;-77
2022/11/09 03:45:11;;;;;;;13.30;2.97;;;11.60;99.90;;;;;;6156610;23;20025;-77
2022/11/09 03:47:45;;;;;;;16.35;3.40;;;11.50;99.90;;;;;;6156978;23;20020;-77
2022/11/09 03:50:12;;;;;;;11.18;3.05;;;11.50;99.90;;;;;;6156965;23;20025;-77
2022/11/09 03:52:38;;;;;;;9.63;3.08;;;11.50;99.90;;;;;;6130296;23;20443;-77
2022/11/09 03:55:05;;;;;;;15.48;2.85;;;11.50;99.90;;;;;;6130325;23;20025;-78
2022/11/09 03:57:31;;;;;;;14.00;3.28;;;11.50;99.90;;;;;;6156817;23;20017;-77
2022/11/09 03:59:56;;;;;;;9.48;2.25;;;11.50;99.90;;;;;;6156891;23;20097;-77
2022/11/09 04:02:22;;;;;;;10.10;2.45;;;11.50;99.90;;;;;;6130372;23;20025;-77
2022/11/09 04:04:48;;;;;;;10.95;2.35;;;11.60;99.90;;;;;;6156526;23;20434;-77
2022/11/09 04:07:14;;;;;;;17.02;3.00;;;11.50;99.90;;;;;;6156763;23;20041;-77
2022/11/09 04:09:39;;;;;;;19.00;3.03;;;11.50;99.90;;;;;;6130451;23;20349;-77
2022/11/09 04:12:05;;;;;;;12.07;2.95;;;11.40;99.90;;;;;;6156386;23;20434;-78
2022/11/09 04:14:31;;;;;;;8.55;2.10;;;11.50;99.90;;;;;;6130393;23;20053;-77
2022/11/09 04:16:56;;;;;;;15.43;2.30;;;11.50;99.90;;;;;;6156670;23;20018;-77
2022/11/09 04:19:22;;;;;;;12.73;3.10;;;11.60;99.90;;;;;;6156734;23;20089;-77
2022/11/09 04:21:48;;;;;;;17.52;3.40;;;11.50;99.90;;;;;;6156710;23;20426;-77
2022/11/09 04:24:14;;;;;;;14.80;2.95;;;11.60;99.90;;;;;;6156715;23;20021;-77
2022/11/09 04:26:39;;;;;;;12.77;2.20;;;11.50;99.90;;;;;;6156454;23;20026;-77
2022/11/09 04:29:05;;;;;;;9.35;2.22;;;11.60;99.90;;;;;;6130043;23;20017;-77
2022/11/09 04:31:31;;;;;;;16.60;2.47;;;11.60;99.90;;;;;;6105839;23;20032;-77
2022/11/09 04:33:56;;;;;;;14.07;2.70;;;11.60;99.90;;;;;;6130211;23;20021;-77
2022/11/09 04:36:22;;;;;;;5.82;1.90;;;11.60;99.90;;;;;;6156383;23;20077;-78
2022/11/09 04:38:49;;;;;;;11.57;2.13;;;11.60;99.90;;;;;;6156155;23;20056;-77
2022/11/09 04:41:14;;;;;;;9.40;2.55;;;11.60;99.90;;;;;;6130121;23;20092;-77
2022/11/09 04:43:40;;;;;;;11.57;2.45;;;11.60;99.90;;;;;;6156565;23;20017;-77
2022/11/09 04:46:06;;;;;;;14.10;2.67;;;11.60;99.90;;;;;;6156589;23;20015;-77
2022/11/09 04:48:32;;;;;;;13.25;2.83;;;11.60;99.90;;;;;;6130100;23;20017;-77
2022/11/09 04:51:03;;;;;;;8.45;2.33;;;11.60;99.90;;;;;;6156473;23;20025;-78
2022/11/09 04:53:29;;;;;;;13.27;2.53;;;11.70;99.90;;;;;;6156570;23;20022;-78
2022/11/09 04:55:56;;;;;;;13.60;2.47;;;11.60;99.90;;;;;;6156528;23;20014;-77
2022/11/09 04:58:21;;;;;;;10.40;2.20;;;11.70;99.90;;;;;;6156373;23;20064;-78
2022/11/09 05:00:48;;;;;;;9.80;2.00;;;11.60;99.90;;;;;;6130100;23;20088;-78
2022/11/09 05:03:14;;;;;;;10.27;2.92;;;11.70;99.90;;;;;;6130020;23;20029;-78
2022/11/09 05:05:40;;;;;;;14.32;3.00;;;11.70;99.90;;;;;;6156434;23;20323;-78
2022/11/09 05:08:07;;;;;;;11.75;2.83;;;11.70;99.90;;;;;;6131155;23;20080;-77
2022/11/09 05:10:33;;;;;;;19.52;2.67;;;11.70;99.90;;;;;;6131980;23;20017;-78
2022/11/09 05:13:08;;;;;;;9.15;2.30;;;11.60;99.90;;;;;;6157822;23;20025;-77
2022/11/09 05:15:35;;;;;;;11.77;2.30;;;11.60;99.90;;;;;;6157918;23;20480;-78
2022/11/09 05:18:01;;;;;;;10.90;2.70;;;11.60;99.90;;;;;;6132033;23;20021;-77
2022/11/09 05:20:27;;;;;;;11.93;2.83;;;11.50;99.90;;;;;;6158020;23;20022;-77
2022/11/09 05:25:38;;;;;;;11.38;2.50;;;11.50;99.90;;;;;;6158371;23;20084;-77
2022/11/09 05:28:04;;;;;;;11.35;2.40;;;11.40;99.90;;;;;;6157969;23;20018;-77
2022/11/09 05:30:29;;;;;;;13.63;3.17;;;11.40;99.90;;;;;;6158267;23;20014;-77
2022/11/09 05:32:55;;;;;;;11.65;2.83;;;11.40;99.90;;;;;;6158181;23;20128;-78
2022/11/09 05:35:21;;;;;;;14.45;2.78;;;11.40;99.90;;;;;;6158142;23;20524;-77
2022/11/09 05:37:47;;;;;;;12.20;2.38;;;11.40;99.90;;;;;;6158190;23;20017;-78
2022/11/09 05:40:14;;;;;;;10.50;2.90;;;11.30;99.90;;;;;;6157997;23;20085;-77
2022/11/09 05:42:40;;;;;;;12.52;2.67;;;11.30;99.90;;;;;;6157782;23;20029;-77
2022/11/09 05:45:11;;;;;;;10.65;2.33;;;11.40;99.90;;;;;;6158116;23;20016;-77
2022/11/09 05:47:38;;;;;;;13.07;3.38;;;11.40;99.90;;;;;;6157826;23;20033;-77
2022/11/09 05:50:04;;;;;;;14.88;2.40;;;11.30;99.90;;;;;;6131648;23;20447;-77
2022/11/09 05:52:30;;;;;;;13.27;2.83;;;11.30;99.90;;;;;;6131638;23;20028;-77
2022/11/09 05:54:56;;;;;;;7.68;2.65;;;11.30;99.90;;;;;;6158031;23;20014;-77
2022/11/09 05:57:21;;;;;;;10.25;2.20;;;11.30;99.90;;;;;;6131664;23;20025;-78
2022/11/09 05:59:47;;;;;;;10.35;2.22;;;11.30;99.90;;;;;;6157778;23;20022;-77
2022/11/09 06:02:12;;;;;;;11.60;2.33;;;11.30;99.90;;;;;;6131660;23;20092;-77
2022/11/09 06:04:38;;;;;;;14.43;3.13;;;11.30;99.90;;;;;;6131574;23;20022;-77
2022/11/09 06:07:04;;;;;;;12.55;2.58;;;11.30;99.90;;;;;;6131392;23;20040;-77
2022/11/09 06:09:29;;;;;;;11.20;3.13;;;11.30;99.90;;;;;;6157857;23;20469;-77
2022/11/09 06:11:55;;;;;;;8.60;2.58;;;11.30;99.90;;;;;;6131129;23;20104;-77
2022/11/09 06:14:21;;;;;;;15.32;2.50;;;11.30;99.90;;;;;;6131586;23;20327;-78
2022/11/09 06:16:47;;;;;;;10.18;2.90;;;11.30;99.90;;;;;;6131305;23;20018;-77
2022/11/09 06:19:12;;;;;;;11.52;3.30;;;11.30;99.90;;;;;;6131199;23;20048;-78
2022/11/09 06:21:38;;;;;;;13.40;2.97;;;11.30;99.90;;;;;;6131360;23;20018;-77
2022/11/09 06:24:04;;;;;;;14.52;3.00;;;11.30;99.90;;;;;;6131666;23;20014;-77
2022/11/09 06:26:29;;;;;;;12.18;2.78;;;11.20;99.90;;;;;;6131242;23;20025;-77
2022/11/09 06:28:55;;;;;;;10.95;2.88;;;11.20;99.90;;;;;;6131408;23;20393;-78
2022/11/09 06:31:21;;;;;;;12.45;3.10;;;11.30;99.90;;;;;;6157686;23;20013;-77
2022/11/09 06:33:47;;;;;;;10.23;3.25;;;11.20;99.90;;;;;;6131220;23;20056;-77
2022/11/09 06:36:13;;;;;;;12.85;3.22;;;11.20;99.90;;;;;;6131242;23;20018;-77
2022/11/09 06:38:39;;;;;;;12.60;2.83;;;11.20;99.90;;;;;;6157395;23;20040;-77
2022/11/09 06:41:05;;;;;;;11.55;2.75;;;11.20;99.90;;;;;;6130749;23;20320;-77
2022/11/09 06:43:31;;;;;;;13.70;3.10;;;11.20;99.90;;;;;;6130144;23;20075;-77
2022/11/09 06:45:56;;;;;;;10.77;3.08;;;11.20;99.90;;;;;;6129581;23;20025;-77
2022/11/09 06:48:22;;;;;;;11.27;3.30;;;11.20;99.90;;;;;;6157387;23;20017;-77
2022/11/09 06:50:48;;;;;;;10.05;3.25;;;11.20;99.90;;;;;;6157327;23;20082;-78
2022/11/09 06:53:16;;;;;;;14.80;3.35;;;11.10;99.90;;;;;;6130944;23;20030;-78
2022/11/09 06:55:41;;;;;;;10.63;2.63;;;11.10;99.90;;;;;;6157144;23;20013;-78
2022/11/09 06:58:10;;;;;;;10.20;2.85;;;11.10;99.90;;;;;;6157362;23;20387;-78
2022/11/09 07:00:36;;;;;;;9.65;2.67;;;11.10;99.90;;;;;;6157305;23;20014;-78
2022/11/09 07:03:02;;;;;;;10.60;2.75;;;11.10;99.90;;;;;;6156775;23;20470;-78
2022/11/09 07:05:28;;;;;;;8.77;2.38;;;11.10;99.90;;;;;;6130847;23;20049;-78
2022/11/09 07:07:54;;;;;;;9.63;2.95;;;11.10;99.90;;;;;;6156824;23;20021;-77
2022/11/09 07:10:19;;;;;;;12.52;3.25;;;11.10;99.90;;;;;;6130747;23;20022;-78
2022/11/09 07:12:45;;;;;;;10.27;3.28;;;11.10;99.90;;;;;;6156578;23;20018;-78
2022/11/09 07:15:11;;;;;;;9.18;2.28;;;11.10;99.90;;;;;;6130665;23;20022;-78
2022/11/09 07:17:38;;;;;;;10.60;2.65;;;11.00;99.90;;;;;;6130633;23;20017;-78
2022/11/09 07:20:06;;;;;;;12.07;3.13;;;11.00;99.90;;;;;;6130658;23;20017;-78
2022/11/09 07:22:33;;;;;;;12.35;2.50;;;11.10;99.90;;;;;;6156888;23;20017;-77
2022/11/09 07:24:59;;;;;;;14.60;2.80;;;11.00;99.90;;;;;;6157082;23;20013;-77
2022/11/09 07:27:25;;;;;;;9.93;2.30;;;11.10;99.90;;;;;;6157157;23;20028;-78
2022/11/09 07:29:51;;;;;;;13.93;2.42;;;11.10;99.90;;;;;;6156635;23;20014;-78
2022/11/09 07:32:16;;;;;;;11.00;2.60;;;11.10;99.90;;;;;;6130248;23;20044;-78
2022/11/09 07:34:42;;;;;;;11.45;2.20;;;11.10;99.90;;;;;;6130494;23;20430;-78
2022/11/09 07:37:08;;;;;;;13.80;3.00;;;11.10;99.90;;;;;;6130404;23;20080;-78
2022/11/09 07:39:33;;;;;;;11.75;2.95;;;11.10;99.90;;;;;;6156919;23;20064;-78
2022/11/09 07:41:59;;;;;;;9.98;3.35;;;11.10;99.90;;;;;;6156841;23;20177;-78
2022/11/09 07:44:24;;;;;;;11.38;2.80;;;11.10;99.90;;;;;;6156887;23;20017;-77
2022/11/09 07:46:50;;;;;;;8.63;1.90;;;11.10;99.90;;;;;;6129267;23;20017;-77
2022/11/09 07:49:16;;;;;;;11.18;2.85;;;11.10;99.90;;;;;;6130214;23;20069;-79
2022/11/09 07:51:43;;;;;;;10.88;2.35;;;11.10;99.90;;;;;;6156223;23;20017;-77
2022/11/09 07:54:09;;;;;;;10.52;3.20;;;11.10;99.90;;;;;;6156609;23;20016;-77
2022/11/09 07:56:35;;;;;;;10.18;2.38;;;11.20;99.90;;;;;;6156428;23;20089;-77
2022/11/09 07:59:01;;;;;;;8.68;2.42;;;11.20;99.90;;;;;;6130039;23;20018;-77
2022/11/09 08:01:26;;;;;;;11.55;2.35;;;11.20;99.90;;;;;;6155889;23;20072;-78
2022/11/09 08:03:53;;;;;;;14.57;3.15;;;11.30;99.90;;;;;;6130043;23;20018;-77
2022/11/09 08:06:19;;;;;;;13.65;2.45;;;11.40;99.90;;;;;;6130156;23;20024;-78
2022/11/09 08:08:45;;;;;;;10.70;2.40;;;11.40;99.90;;;;;;6129984;23;20048;-77
2022/11/09 08:11:11;;;;;;;8.02;2.10;;;11.50;99.90;;;;;;6156026;23;20505;-78
2022/11/09 08:13:37;;;;;;;11.20;2.83;;;11.50;99.90;;;;;;6129763;23;20021;-77
2022/11/09 08:16:03;;;;;;;12.23;3.17;;;11.60;99.90;;;;;;6156393;23;20009;-77
2022/11/09 08:18:29;;;;;;;9.10;2.30;;;11.60;99.90;;;;;;6129960;23;20346;-78
2022/11/09 08:20:54;;;;;;;16.77;2.58;;;11.60;99.90;;;;;;6129999;23;20020;-78
2022/11/09 08:23:21;;;;;;;8.65;2.15;;;11.60;99.90;;;;;;6155920;23;20096;-78
2022/11/09 08:25:47;;;;;;;9.48;2.05;;;11.60;99.90;;;;;;6156348;23;20101;-78
2022/11/09 08:28:16;;;;;;;15.38;2.80;;;11.60;99.90;;;;;;6156295;23;20021;-78
2022/11/09 08:30:43;;;;;;;12.77;2.40;;;11.60;99.90;;;;;;6129798;23;20017;-78
2022/11/09 08:33:10;;;;;;;10.20;2.45;;;11.70;99.90;;;;;;6156183;23;20013;-77
2022/11/09 08:35:36;;;;;;;10.90;2.40;;;11.70;99.90;;;;;;6129935;23;20021;-78
2022/11/09 08:38:03;;;;;;;11.30;2.40;;;11.70;99.90;;;;;;6155501;23;20446;-78
2022/11/09 08:40:30;;;;;;;7.68;2.35;;;11.80;99.90;;;;;;6129766;23;20430;-78
2022/11/09 08:43:03;;;;;;;8.70;2.42;;;11.80;99.90;;;;;;6129151;23;20017;-78
2022/11/09 08:45:32;;;;;;;11.18;2.70;;;11.90;99.90;;;;;;6115407;23;20346;-79
2022/11/09 08:47:58;;;;;;;14.85;2.65;;;11.80;99.90;;;;;;6155902;23;20013;-78
2022/11/09 08:50:26;;;;;;;13.10;2.70;;;11.90;99.90;;;;;;6131620;23;20021;-79
2022/11/09 08:52:51;;;;;;;9.32;2.53;;;11.90;99.90;;;;;;6151393;23;20097;-77
2022/11/09 08:55:17;;;;;;;9.93;2.40;;;12.00;99.90;;;;;;6155282;23;20033;-77
2022/11/09 08:57:43;;;;;;;5.88;2.33;;;12.00;99.90;;;;;;6129409;23;20076;-77
2022/11/09 09:00:09;;;;;;;12.88;3.08;;;12.10;99.90;;;;;;6129497;23;20029;-77
2022/11/09 09:02:35;;;;;;;11.38;2.60;;;12.10;99.90;;;;;;6129485;23;20025;-77
2022/11/09 09:05:00;;;;;;;15.02;3.08;;;12.20;99.90;;;;;;6156051;23;20017;-77
2022/11/09 09:07:28;;;;;;;14.52;3.08;;;12.20;99.90;;;;;;6156207;23;20032;-77
2022/11/09 09:09:54;;;;;;;12.77;2.72;;;12.20;99.90;;;;;;6129430;23;20338;-77
2022/11/09 09:12:19;;;;;;;12.82;2.78;;;12.30;99.90;;;;;;6129185;23;20028;-78
2022/11/09 09:14:45;;;;;;;12.57;2.20;;;12.30;99.90;;;;;;6129384;23;20025;-77
2022/11/09 09:17:11;;;;;;;11.07;2.78;;;12.40;99.90;;;;;;6129573;23;20045;-77
2022/11/09 09:19:37;;;;;;;8.60;2.20;;;12.40;99.90;;;;;;6155882;23;20075;-78
2022/11/09 09:22:02;;;;;;;10.98;2.60;;;12.40;99.90;;;;;;6129533;23;20053;-77
2022/11/09 09:24:28;;;;;;;11.30;2.60;;;12.50;99.90;;;;;;6155718;23;20017;-78
2022/11/09 09:26:54;;;;;;;12.95;2.20;;;12.50;99.90;;;;;;6155917;23;20013;-78
2022/11/09 09:29:20;;;;;;;7.43;2.38;;;12.50;99.90;;;;;;6129684;23;20032;-78
2022/11/09 09:31:45;;;;;;;10.75;2.80;;;12.60;99.90;;;;;;6129641;23;20022;-78
2022/11/09 09:34:12;;;;;;;12.13;2.67;;;12.70;99.90;;;;;;6156009;23;20020;-77
2022/11/09 09:36:38;;;;;;;14.30;2.88;;;12.70;99.90;;;;;;6129417;23;20354;-78
2022/11/09 09:39:04;;;;;;;11.27;2.72;;;12.80;99.90;;;;;;6155931;23;20088;-78
2022/11/09 09:41:54;;;;;;;14.75;2.60;;;12.90;99.90;;;;;;6155497;23;20013;-78
2022/11/09 09:44:44;;;;;;;11.82;2.50;;;12.90;99.90;;;;;;6155914;23;20022;-78
2022/11/09 09:47:46;;;;;;;13.02;2.65;;;13.00;99.90;;;;;;6155966;23;20018;-78
2022/11/09 09:50:36;;;;;;;11.57;2.83;;;13.00;99.90;;;;;;6154670;23;20123;-78
2022/11/09 09:53:24;;;;;;;10.23;2.60;;;13.10;99.90;;;;;;6136368;23;20052;-78
2022/11/09 09:55:59;;;;;;;12.63;2.75;;;13.10;99.90;;;;;;6131147;23;20028;-78
2022/11/09 09:58:27;;;;;;;8.55;2.50;;;13.00;99.90;;;;;;6157838;23;20013;-78
2022/11/09 10:01:01;;;;;;;9.15;2.70;;;13.10;99.90;;;;;;6157762;23;20080;-78
2022/11/09 10:03:27;;;;;;;12.80;2.78;;;13.10;99.90;;;;;;6157676;23;20064;-78
2022/11/09 10:06:03;;;;;;;12.05;2.40;;;13.20;99.90;;;;;;6157460;23;20381;-78
2022/11/09 10:08:44;;;;;;;12.02;2.30;;;13.30;99.90;;;;;;6131055;23;20080;-77
2022/11/09 10:11:12;;;;;;;10.60;2.80;;;13.40;99.90;;;;;;6131022;23;20022;-78
2022/11/09 10:13:55;;;;;;;12.23;2.58;;;13.50;99.90;;;;;;6130920;23;20048;-77
2022/11/09 10:16:33;;;;;;;;;;;13.40;99.90;;;;;;6131613;23;20287;-78
2022/11/09 10:19:28;;;;;;;10.60;2.58;;;13.50;99.90;;;;;;6130981;23;19920;-78
2022/11/09 10:22:07;;;;;;;9.52;2.83;;;13.70;99.90;;;;;;6087046;23;20025;-77
2022/11/09 10:25:10;;;;;;;9.65;2.70;;;13.70;99.90;;;;;;6131122;23;20018;-78
2022/11/09 10:27:41;;;;;;;11.07;2.92;;;13.90;99.90;;;;;;6131033;23;20354;-77
2022/11/09 10:30:15;;;;;;;12.25;2.85;;;13.90;99.90;;;;;;6130956;23;20500;-78
2022/11/09 10:32:44;;;;;;;12.30;2.60;;;13.90;99.90;;;;;;6130780;23;20025;-78
2022/11/09 10:35:19;;;;;;;13.55;3.33;;;13.90;99.90;;;;;;6131015;23;20100;-78
2022/11/09 10:37:51;;;;;;;16.10;4.10;;;13.80;99.90;;;;;;6128840;23;20385;-79
2022/11/09 10:40:39;;;;;;;12.57;3.37;;;13.80;99.90;;;;;;6130373;23;20405;-78
2022/11/09 10:43:09;;;;;;;13.30;3.13;;;13.70;99.90;;;;;;6157341;23;20245;-78
2022/11/09 10:45:37;;;;;;;12.90;3.60;;;13.70;99.90;;;;;;6157352;23;20021;-78
2022/11/09 10:48:05;;;;;;;17.83;4.05;;;13.60;99.90;;;;;;6130755;23;20022;-79
2022/11/09 10:50:53;;;;;;;17.05;4.03;;;13.60;99.90;;;;;;6130729;23;20028;-78
2022/11/09 10:53:21;;;;;;;11.13;3.90;;;13.50;99.90;;;;;;6156713;23;20017;-78
2022/11/09 10:56:13;;;;;;;10.90;4.75;;;13.40;99.90;;;;;;6157173;23;20027;-78
2022/11/09 10:58:52;;;;;;;14.50;5.07;;;13.30;99.90;;;;;;6130062;23;20028;-78
2022/11/09 11:01:23;;;;;;;15.60;5.25;;;13.30;99.90;;;;;;6130195;23;20088;-78
2022/11/09 11:03:53;;;;;;;13.05;5.53;;;13.30;99.90;;;;;;6130675;23;20029;-78
2022/11/09 11:06:21;;;;;;;14.75;5.55;;;13.30;99.90;;;;;;6130176;23;20021;-77
2022/11/09 11:08:56;;;;;;;13.52;6.25;;;13.30;99.90;;;;;;6130399;23;20357;-78
2022/11/09 11:11:27;;;;;;;15.38;5.95;;;13.20;99.90;;;;;;6156868;23;20068;-78
2022/11/09 11:14:16;;;;;;;13.68;5.45;;;13.20;99.90;;;;;;6130469;23;20021;-78
2022/11/09 11:16:43;;;;;;;15.27;4.82;;;13.30;99.90;;;;;;6157004;23;20033;-79
2022/11/09 11:19:36;;;;;;;8.68;4.57;;;13.20;99.90;;;;;;6156688;23;20017;-80
2022/11/09 11:22:08;;;;;;;13.25;5.93;;;13.20;99.90;;;;;;6130423;23;20077;-80
2022/11/09 11:24:52;;;;;;;13.93;5.38;;;13.20;99.90;;;;;;6130424;23;20098;-77
2022/11/09 11:27:24;;;;;;;16.15;5.65;;;13.20;99.90;;;;;;6156965;23;20025;-77
2022/11/09 11:30:01;;;;;;;14.52;5.18;;;13.10;99.90;;;;;;6156619;23;20021;-77
2022/11/09 11:32:27;;;;;;;17.98;5.60;;;13.20;99.90;;;;;;6130405;23;20022;-78
2022/11/09 11:34:53;;;;;;;13.05;5.53;;;13.20;99.90;;;;;;6130311;23;20070;-77
2022/11/09 11:37:40;;;;;;;13.68;5.90;;;13.20;99.90;;;;;;6130471;23;20024;-77
2022/11/09 11:40:15;;;;;;;13.18;5.03;;;13.20;99.90;;;;;;6133390;23;20021;-78
2022/11/09 11:42:50;;;;;;;17.15;5.25;;;13.20;99.90;;;;;;6130377;23;20028;-80
2022/11/09 11:45:34;;;;;;;13.52;5.53;;;13.20;99.90;;;;;;6130249;23;20021;-77
2022/11/09 11:48:12;;;;;;;12.90;5.28;;;13.10;99.90;;;;;;6156809;23;20017;-77
2022/11/09 11:50:44;;;;;;;10.10;4.85;;;13.10;99.90;;;;;;6156646;23;20074;-80
2022/11/09 11:53:27;;;;;;;15.02;5.75;;;13.10;99.90;;;;;;6130068;23;20467;-77
2022/11/09 11:56:16;;;;;;;15.82;5.22;;;13.10;99.90;;;;;;6156698;23;20088;-77
2022/11/09 11:58:48;;;;;;;9.05;4.68;;;13.00;99.90;;;;;;6156232;23;20024;-77
2022/11/09 12:01:32;;;;;;;13.65;4.95;;;13.00;99.90;;;;;;6156424;23;20017;-77
2022/11/09 12:04:19;;;;;;;11.13;4.80;;;13.00;99.90;;;;;;6130129;23;20018;-77
2022/11/09 12:06:53;;;;;;;15.70;5.82;;;13.00;99.90;;;;;;6156581;23;20049;-77
2022/11/09 12:09:21;;;;;;;15.20;5.57;;;12.90;99.90;;;;;;6156490;23;20014;-77
2022/11/09 12:11:47;;;;;;;12.38;5.00;;;12.90;99.90;;;;;;6129776;23;20029;-77
2022/11/09 12:14:34;;;;;;;18.42;7.32;;;12.80;99.90;;;;;;6156547;23;20311;-77
2022/11/09 12:17:12;;;;;;;15.98;6.43;;;12.80;99.90;;;;;;6129848;23;20017;-77
2022/11/09 12:19:39;;;;;;;15.02;5.78;;;12.60;99.90;;;;;;6156040;23;20060;-78
2022/11/09 12:22:05;;;;;;;13.35;6.10;;;12.40;99.90;;;;;;6129946;23;20017;-80
2022/11/09 12:24:54;;;;;;;15.38;5.90;;;12.30;99.90;;;;;;6156308;23;20028;-79
2022/11/09 12:27:51;;;;;;;15.52;5.70;;;12.20;99.90;;;;;;6129970;23;20017;-79
2022/11/09 12:30:17;;;;;;;15.20;5.18;;;12.10;99.90;;;;;;6086066;23;20025;-80
2022/11/09 12:32:54;;;;;;;12.65;4.30;;;12.00;99.90;;;;;;6129757;23;20024;-81
2022/11/09 12:35:32;;;;;;;12.60;4.55;;;12.00;99.90;;;;;;6130354;23;20013;-80
2022/11/09 12:38:10;;;;;;;7.72;3.50;;;11.90;99.90;;;;;;6155803;23;20330;-81
2022/11/09 12:40:54;;;;;;;4.82;1.77;;;11.70;99.90;;;;;;6156233;23;20013;-80
2022/11/09 12:43:24;;;;;;;4.22;1.30;;;11.60;99.90;;;;;;6129734;23;20048;-80
2022/11/09 12:45:51;;;;;;;7.53;1.75;;;11.40;99.90;;;;;;6129851;23;20410;-80
2022/11/09 12:48:28;;;;;;;5.38;1.35;;;11.40;99.90;;;;;;6129823;23;20051;-80
2022/11/09 12:50:54;;;;;;;6.20;2.25;;;11.30;99.90;;;;;;6129851;23;20021;-81
2022/11/09 12:53:24;;;;;;;4.50;1.98;;;11.30;99.90;;;;;;6129599;23;20056;-81